sensor_id;sensor_type;location;lat;lon;timestamp;pressure;altitude;pressure_sealevel;temperature
75273;BMP280;63869;52.344;16.928;2023-02-03T00:01:37;101399.06;;;1.87
75273;BMP280;63869;52.344;16.928;2023-02-03T00:04:02;101390.03;;;1.76
75273;BMP280;63869;52.344;16.928;2023-02-03T00:06:29;101387.66;;;1.83
75273;BMP280;63869;52.344;16.928;2023-02-03T00:08:56;101393.63;;;1.92
75273;BMP280;63869;52.344;16.928;2023-02-03T00:11:23;101391.44;;;1.94
75273;BMP280;63869;52.344;16.928;2023-02-03T00:13:49;101390.47;;;1.99
75273;BMP280;63869;52.344;16.928;2023-02-03T00:16:14;101391.88;;;1.96
75273;BMP280;63869;52.344;16.928;2023-02-03T00:18:39;101390.03;;;1.97
75273;BMP280;63869;52.344;16.928;2023-02-03T00:21:05;101387.19;;;2.02
75273;BMP280;63869;52.344;16.928;2023-02-03T00:23:30;101388.72;;;2.03
75273;BMP280;63869;52.344;16.928;2023-02-03T00:25:59;101373.44;;;1.96
75273;BMP280;63869;52.344;16.928;2023-02-03T00:28:30;101377.72;;;2.01
75273;BMP280;63869;52.344;16.928;2023-02-03T00:30:56;101377.28;;;1.99
75273;BMP280;63869;52.344;16.928;2023-02-03T00:33:21;101370.03;;;1.96
75273;BMP280;63869;52.344;16.928;2023-02-03T00:35:46;101377.41;;;2.02
75273;BMP280;63869;52.344;16.928;2023-02-03T00:38:12;101363.31;;;1.98
75273;BMP280;63869;52.344;16.928;2023-02-03T00:40:37;101355.38;;;1.86
75273;BMP280;63869;52.344;16.928;2023-02-03T00:43:02;101361.22;;;1.92
75273;BMP280;63869;52.344;16.928;2023-02-03T00:45:27;101349.53;;;1.80
75273;BMP280;63869;52.344;16.928;2023-02-03T00:47:53;101353.72;;;1.81
75273;BMP280;63869;52.344;16.928;2023-02-03T00:50:18;101335.31;;;1.73
75273;BMP280;63869;52.344;16.928;2023-02-03T00:52:44;101326.34;;;1.74
75273;BMP280;63869;52.344;16.928;2023-02-03T00:55:09;101326.34;;;1.74
75273;BMP280;63869;52.344;16.928;2023-02-03T00:57:34;101313.97;;;1.66
75273;BMP280;63869;52.344;16.928;2023-02-03T00:59:59;101275.22;;;1.45
75273;BMP280;63869;52.344;16.928;2023-02-03T01:02:25;101302.00;;;1.68
75273;BMP280;63869;52.344;16.928;2023-02-03T01:04:51;101310.38;;;1.70
75273;BMP280;63869;52.344;16.928;2023-02-03T01:07:17;101308.94;;;1.73
75273;BMP280;63869;52.344;16.928;2023-02-03T01:09:42;101314.22;;;1.73
75273;BMP280;63869;52.344;16.928;2023-02-03T01:12:08;101292.13;;;1.65
75273;BMP280;63869;52.344;16.928;2023-02-03T01:14:33;101289.72;;;1.72
75273;BMP280;63869;52.344;16.928;2023-02-03T01:16:59;101283.69;;;1.72
75273;BMP280;63869;52.344;16.928;2023-02-03T01:19:26;101250.66;;;1.53
75273;BMP280;63869;52.344;16.928;2023-02-03T01:21:51;101251.88;;;1.56
75273;BMP280;63869;52.344;16.928;2023-02-03T01:24:16;101245.38;;;1.53
75273;BMP280;63869;52.344;16.928;2023-02-03T01:26:42;101244.50;;;1.49
75273;BMP280;63869;52.344;16.928;2023-02-03T01:29:07;101249.13;;;1.52
75273;BMP280;63869;52.344;16.928;2023-02-03T01:31:35;101243.28;;;1.47
75273;BMP280;63869;52.344;16.928;2023-02-03T01:34:03;101234.00;;;1.41
75273;BMP280;63869;52.344;16.928;2023-02-03T01:36:30;101231.97;;;1.46
75273;BMP280;63869;52.344;16.928;2023-02-03T01:38:56;101229.50;;;1.41
75273;BMP280;63869;52.344;16.928;2023-02-03T01:41:33;101229.38;;;1.38
75273;BMP280;63869;52.344;16.928;2023-02-03T01:44:00;101214.91;;;1.32
75273;BMP280;63869;52.344;16.928;2023-02-03T01:46:43;101220.38;;;1.39
75273;BMP280;63869;52.344;16.928;2023-02-03T01:49:17;101223.47;;;1.41
75273;BMP280;63869;52.344;16.928;2023-02-03T01:51:44;101234.16;;;1.44
75273;BMP280;63869;52.344;16.928;2023-02-03T01:54:16;101244.06;;;1.47
75273;BMP280;63869;52.344;16.928;2023-02-03T01:56:47;101247.56;;;1.51
75273;BMP280;63869;52.344;16.928;2023-02-03T01:59:15;101246.09;;;1.63
75273;BMP280;63869;52.344;16.928;2023-02-03T02:01:42;101234.03;;;1.62
75273;BMP280;63869;52.344;16.928;2023-02-03T02:04:08;101224.13;;;1.59
75273;BMP280;63869;52.344;16.928;2023-02-03T02:06:35;101227.44;;;1.68
75273;BMP280;63869;52.344;16.928;2023-02-03T02:09:00;101223.84;;;1.72
75273;BMP280;63869;52.344;16.928;2023-02-03T02:11:26;101230.81;;;1.77
75273;BMP280;63869;52.344;16.928;2023-02-03T02:13:54;101215.63;;;1.74
75273;BMP280;63869;52.344;16.928;2023-02-03T02:16:28;101211.44;;;1.73
75273;BMP280;63869;52.344;16.928;2023-02-03T02:19:09;101203.66;;;1.76
75273;BMP280;63869;52.344;16.928;2023-02-03T02:41:36;101118.34;;;1.81
75273;BMP280;63869;52.344;16.928;2023-02-03T02:44:15;101105.25;;;1.72
75273;BMP280;63869;52.344;16.928;2023-02-03T02:46:47;101109.56;;;1.77
75273;BMP280;63869;52.344;16.928;2023-02-03T02:49:19;101114.84;;;1.77
75273;BMP280;63869;52.344;16.928;2023-02-03T02:51:47;101106.22;;;1.68
75273;BMP280;63869;52.344;16.928;2023-02-03T02:54:16;101122.28;;;1.75
75273;BMP280;63869;52.344;16.928;2023-02-03T02:56:44;101100.75;;;1.61
75273;BMP280;63869;52.344;16.928;2023-02-03T02:59:13;101109.09;;;1.63
75273;BMP280;63869;52.344;16.928;2023-02-03T03:01:38;101106.88;;;1.65
75273;BMP280;63869;52.344;16.928;2023-02-03T03:04:06;101098.28;;;1.56
75273;BMP280;63869;52.344;16.928;2023-02-03T03:06:37;101111.38;;;1.64
75273;BMP280;63869;52.344;16.928;2023-02-03T03:09:07;101106.44;;;1.63
75273;BMP280;63869;52.344;16.928;2023-02-03T03:11:44;101092.06;;;1.60
75273;BMP280;63869;52.344;16.928;2023-02-03T03:14:11;101091.94;;;1.57
75273;BMP280;63869;52.344;16.928;2023-02-03T03:16:40;101084.59;;;1.62
75273;BMP280;63869;52.344;16.928;2023-02-03T03:19:15;101077.91;;;1.65
75273;BMP280;63869;52.344;16.928;2023-02-03T03:21:49;101066.81;;;1.59
75273;BMP280;63869;52.344;16.928;2023-02-03T03:24:40;101063.63;;;1.66
75273;BMP280;63869;52.344;16.928;2023-02-03T03:27:10;101063.63;;;1.66
75273;BMP280;63869;52.344;16.928;2023-02-03T03:29:42;101049.00;;;1.56
75273;BMP280;63869;52.344;16.928;2023-02-03T03:32:10;101060.56;;;1.64
75273;BMP280;63869;52.344;16.928;2023-02-03T03:34:35;101051.13;;;1.63
75273;BMP280;63869;52.344;16.928;2023-02-03T03:37:22;101046.72;;;1.67
75273;BMP280;63869;52.344;16.928;2023-02-03T03:40:00;101040.69;;;1.66
75273;BMP280;63869;52.344;16.928;2023-02-03T03:42:31;101040.69;;;1.66
75273;BMP280;63869;52.344;16.928;2023-02-03T03:45:06;101045.50;;;1.64
75273;BMP280;63869;52.344;16.928;2023-02-03T03:47:58;101037.72;;;1.68
75273;BMP280;63869;52.344;16.928;2023-02-03T03:50:30;101018.41;;;1.64
75273;BMP280;63869;52.344;16.928;2023-02-03T03:52:59;101018.09;;;1.77
75273;BMP280;63869;52.344;16.928;2023-02-03T03:55:28;101003.25;;;1.73
75273;BMP280;63869;52.344;16.928;2023-02-03T03:58:02;101004.56;;;1.79
75273;BMP280;63869;52.344;16.928;2023-02-03T04:00:31;100979.31;;;1.66
75273;BMP280;63869;52.344;16.928;2023-02-03T04:03:03;100997.53;;;1.71
75273;BMP280;63869;52.344;16.928;2023-02-03T04:05:29;101003.25;;;1.73
75273;BMP280;63869;52.344;16.928;2023-02-03T04:07:56;100988.31;;;1.77
75273;BMP280;63869;52.344;16.928;2023-02-03T04:10:29;100992.69;;;1.85
75273;BMP280;63869;52.344;16.928;2023-02-03T04:12:55;100974.25;;;1.85
75273;BMP280;63869;52.344;16.928;2023-02-03T04:15:20;100967.44;;;1.84
75273;BMP280;63869;52.344;16.928;2023-02-03T04:17:46;100962.25;;;1.88
75273;BMP280;63869;52.344;16.928;2023-02-03T04:20:12;100966.97;;;1.94
75273;BMP280;63869;52.344;16.928;2023-02-03T04:22:38;100944.56;;;1.88
75273;BMP280;63869;52.344;16.928;2023-02-03T04:25:03;100947.13;;;1.85
75273;BMP280;63869;52.344;16.928;2023-02-03T04:27:29;100955.66;;;1.94
75273;BMP280;63869;52.344;16.928;2023-02-03T04:29:54;100939.22;;;1.85
75273;BMP280;63869;52.344;16.928;2023-02-03T04:32:19;100942.59;;;1.97
75273;BMP280;63869;52.344;16.928;2023-02-03T04:34:45;100925.81;;;1.90
75273;BMP280;63869;52.344;16.928;2023-02-03T04:37:10;100879.72;;;1.71
75273;BMP280;63869;52.344;16.928;2023-02-03T04:39:36;100921.59;;;2.01
75273;BMP280;63869;52.344;16.928;2023-02-03T04:42:01;100916.66;;;1.99
75273;BMP280;63869;52.344;16.928;2023-02-03T04:44:26;100903.91;;;2.01
75273;BMP280;63869;52.344;16.928;2023-02-03T04:46:52;100894.88;;;2.02
75273;BMP280;63869;52.344;16.928;2023-02-03T04:49:17;100898.84;;;2.08
75273;BMP280;63869;52.344;16.928;2023-02-03T04:51:43;100872.25;;;2.01
75273;BMP280;63869;52.344;16.928;2023-02-03T04:54:09;100848.13;;;1.87
75273;BMP280;63869;52.344;16.928;2023-02-03T04:56:35;100884.31;;;2.14
75273;BMP280;63869;52.344;16.928;2023-02-03T04:59:00;100859.72;;;2.10
75273;BMP280;63869;52.344;16.928;2023-02-03T05:01:26;100849.84;;;2.07
75273;BMP280;63869;52.344;16.928;2023-02-03T05:03:51;100866.50;;;2.24
75273;BMP280;63869;52.344;16.928;2023-02-03T05:06:21;100842.63;;;2.20
75273;BMP280;63869;52.344;16.928;2023-02-03T05:08:47;100854.84;;;2.25
75273;BMP280;63869;52.344;16.928;2023-02-03T05:11:12;100864.09;;;2.34
75273;BMP280;63869;52.344;16.928;2023-02-03T05:13:37;100859.69;;;2.38
75273;BMP280;63869;52.344;16.928;2023-02-03T05:16:03;100839.09;;;2.28
75273;BMP280;63869;52.344;16.928;2023-02-03T05:18:28;100845.91;;;2.45
75273;BMP280;63869;52.344;16.928;2023-02-03T05:20:53;100846.41;;;2.51
75273;BMP280;63869;52.344;16.928;2023-02-03T05:23:18;100838.50;;;2.51
75273;BMP280;63869;52.344;16.928;2023-02-03T05:25:44;100839.88;;;2.60
75273;BMP280;63869;52.344;16.928;2023-02-03T05:28:10;100830.59;;;2.66
75273;BMP280;63869;52.344;16.928;2023-02-03T05:30:35;100814.28;;;2.61
75273;BMP280;63869;52.344;16.928;2023-02-03T05:33:01;100803.09;;;2.52
75273;BMP280;63869;52.344;16.928;2023-02-03T05:35:27;100794.59;;;2.58
75273;BMP280;63869;52.344;16.928;2023-02-03T05:37:52;100807.47;;;2.60
75273;BMP280;63869;52.344;16.928;2023-02-03T05:40:17;100798.00;;;2.59
75273;BMP280;63869;52.344;16.928;2023-02-03T05:43:01;100786.28;;;2.56
75273;BMP280;63869;52.344;16.928;2023-02-03T05:45:27;100756.47;;;2.40
75273;BMP280;63869;52.344;16.928;2023-02-03T05:47:52;100774.41;;;2.50
75273;BMP280;63869;52.344;16.928;2023-02-03T05:50:17;100758.84;;;2.45
75273;BMP280;63869;52.344;16.928;2023-02-03T05:52:43;100765.16;;;2.56
75273;BMP280;63869;52.344;16.928;2023-02-03T05:55:08;100748.97;;;2.42
75273;BMP280;63869;52.344;16.928;2023-02-03T05:57:33;100739.63;;;2.44
75273;BMP280;63869;52.344;16.928;2023-02-03T05:59:59;100763.03;;;2.62
75273;BMP280;63869;52.344;16.928;2023-02-03T06:02:24;100758.16;;;2.64
75273;BMP280;63869;52.344;16.928;2023-02-03T06:04:49;100763.06;;;2.65
75273;BMP280;63869;52.344;16.928;2023-02-03T06:07:14;100753.22;;;2.62
75273;BMP280;63869;52.344;16.928;2023-02-03T06:09:40;100751.84;;;2.68
75273;BMP280;63869;52.344;16.928;2023-02-03T06:12:05;100743.84;;;2.65
75273;BMP280;63869;52.344;16.928;2023-02-03T06:14:31;100743.59;;;2.70
75273;BMP280;63869;52.344;16.928;2023-02-03T06:16:56;100742.81;;;2.69
75273;BMP280;63869;52.344;16.928;2023-02-03T06:19:21;100735.22;;;2.68
75273;BMP280;63869;52.344;16.928;2023-02-03T06:21:46;100709.47;;;2.61
75273;BMP280;63869;52.344;16.928;2023-02-03T06:24:12;100723.03;;;2.79
75273;BMP280;63869;52.344;16.928;2023-02-03T06:26:37;100710.38;;;2.69
75273;BMP280;63869;52.344;16.928;2023-02-03T06:29:03;100705.34;;;2.80
75273;BMP280;63869;52.344;16.928;2023-02-03T06:31:28;100700.75;;;2.76
75273;BMP280;63869;52.344;16.928;2023-02-03T06:33:54;100704.63;;;2.83
75273;BMP280;63869;52.344;16.928;2023-02-03T06:36:21;100694.69;;;2.76
75273;BMP280;63869;52.344;16.928;2023-02-03T06:38:47;100689.13;;;2.62
75273;BMP280;63869;52.344;16.928;2023-02-03T06:41:13;100681.91;;;2.43
75273;BMP280;63869;52.344;16.928;2023-02-03T06:43:38;100674.16;;;2.34
75273;BMP280;63869;52.344;16.928;2023-02-03T06:46:03;100627.09;;;2.01
75273;BMP280;63869;52.344;16.928;2023-02-03T06:48:29;100646.56;;;2.12
75273;BMP280;63869;52.344;16.928;2023-02-03T06:50:54;100631.94;;;1.99
75273;BMP280;63869;52.344;16.928;2023-02-03T06:53:19;100631.09;;;1.95
75273;BMP280;63869;52.344;16.928;2023-02-03T06:55:45;100599.66;;;1.71
75273;BMP280;63869;52.344;16.928;2023-02-03T06:58:12;100625.63;;;1.88
75273;BMP280;63869;52.344;16.928;2023-02-03T07:00:37;100603.31;;;1.82
75273;BMP280;63869;52.344;16.928;2023-02-03T07:03:02;100606.22;;;1.77
75273;BMP280;63869;52.344;16.928;2023-02-03T07:05:28;100600.50;;;1.75
75273;BMP280;63869;52.344;16.928;2023-02-03T07:07:57;100581.47;;;1.66
75273;BMP280;63869;52.344;16.928;2023-02-03T07:10:23;100576.94;;;1.66
75273;BMP280;63869;52.344;16.928;2023-02-03T07:12:48;100554.69;;;1.64
75273;BMP280;63869;52.344;16.928;2023-02-03T07:15:15;100560.88;;;1.71
75273;BMP280;63869;52.344;16.928;2023-02-03T07:17:41;100548.75;;;1.67
75273;BMP280;63869;52.344;16.928;2023-02-03T07:20:06;100554.19;;;1.74
75273;BMP280;63869;52.344;16.928;2023-02-03T07:22:32;100537.69;;;1.77
75273;BMP280;63869;52.344;16.928;2023-02-03T07:24:57;100525.97;;;1.74
75273;BMP280;63869;52.344;16.928;2023-02-03T07:27:23;100522.31;;;1.79
75273;BMP280;63869;52.344;16.928;2023-02-03T07:29:48;100500.38;;;1.75
75273;BMP280;63869;52.344;16.928;2023-02-03T07:32:13;100503.44;;;1.77
75273;BMP280;63869;52.344;16.928;2023-02-03T07:34:39;100491.03;;;1.77
75273;BMP280;63869;52.344;16.928;2023-02-03T07:37:04;100478.53;;;1.74
75273;BMP280;63869;52.344;16.928;2023-02-03T07:39:30;100481.78;;;1.87
75273;BMP280;63869;52.344;16.928;2023-02-03T07:41:55;100471.13;;;1.80
75273;BMP280;63869;52.344;16.928;2023-02-03T07:44:20;100464.34;;;1.79
75273;BMP280;63869;52.344;16.928;2023-02-03T07:46:46;100463.72;;;1.86
75273;BMP280;63869;52.344;16.928;2023-02-03T07:49:11;100444.53;;;1.69
75273;BMP280;63869;52.344;16.928;2023-02-03T07:51:37;100452.97;;;1.75
75273;BMP280;63869;52.344;16.928;2023-02-03T07:54:03;100443.09;;;1.72
75273;BMP280;63869;52.344;16.928;2023-02-03T07:56:29;100426.28;;;1.61
75273;BMP280;63869;52.344;16.928;2023-02-03T07:58:57;100432.75;;;1.63
75273;BMP280;63869;52.344;16.928;2023-02-03T08:01:22;100415.41;;;1.62
75273;BMP280;63869;52.344;16.928;2023-02-03T08:03:47;100403.00;;;1.63
75273;BMP280;63869;52.344;16.928;2023-02-03T08:06:12;100383.97;;;1.53
75273;BMP280;63869;52.344;16.928;2023-02-03T08:08:38;100382.53;;;1.56
75273;BMP280;63869;52.344;16.928;2023-02-03T08:11:04;100376.25;;;1.61
75273;BMP280;63869;52.344;16.928;2023-02-03T08:13:29;100361.63;;;1.63
75273;BMP280;63869;52.344;16.928;2023-02-03T08:15:54;100362.44;;;1.67
75273;BMP280;63869;52.344;16.928;2023-02-03T08:18:20;100357.41;;;1.78
75273;BMP280;63869;52.344;16.928;2023-02-03T08:20:46;100343.72;;;1.72
75273;BMP280;63869;52.344;16.928;2023-02-03T08:23:12;100355.94;;;1.80
75273;BMP280;63869;52.344;16.928;2023-02-03T08:25:37;100341.66;;;1.81
75273;BMP280;63869;52.344;16.928;2023-02-03T08:28:04;100336.47;;;1.85
75273;BMP280;63869;52.344;16.928;2023-02-03T08:30:29;100321.34;;;1.82
75273;BMP280;63869;52.344;16.928;2023-02-03T08:32:54;100303.09;;;1.73
75273;BMP280;63869;52.344;16.928;2023-02-03T08:35:20;100309.16;;;1.74
75273;BMP280;63869;52.344;16.928;2023-02-03T08:37:45;100307.59;;;1.73
75273;BMP280;63869;52.344;16.928;2023-02-03T08:40:11;100297.69;;;1.66
75273;BMP280;63869;52.344;16.928;2023-02-03T08:42:37;100290.72;;;1.74
75273;BMP280;63869;52.344;16.928;2023-02-03T08:45:03;100285.91;;;1.79
75273;BMP280;63869;52.344;16.928;2023-02-03T08:47:28;100262.50;;;1.74
75273;BMP280;63869;52.344;16.928;2023-02-03T08:49:54;100267.97;;;1.89
75273;BMP280;63869;52.344;16.928;2023-02-03T08:52:20;100257.63;;;1.99
75273;BMP280;63869;52.344;16.928;2023-02-03T08:54:46;100248.00;;;2.07
75273;BMP280;63869;52.344;16.928;2023-02-03T08:57:12;100235.09;;;2.02
75273;BMP280;63869;52.344;16.928;2023-02-03T08:59:38;100237.44;;;2.07
75273;BMP280;63869;52.344;16.928;2023-02-03T09:02:06;100231.13;;;2.11
75273;BMP280;63869;52.344;16.928;2023-02-03T09:04:34;100243.72;;;2.22
75273;BMP280;63869;52.344;16.928;2023-02-03T09:07:00;100227.47;;;2.20
75273;BMP280;63869;52.344;16.928;2023-02-03T09:09:27;100187.00;;;2.08
75273;BMP280;63869;52.344;16.928;2023-02-03T09:11:53;100194.78;;;2.24
75273;BMP280;63869;52.344;16.928;2023-02-03T09:14:24;100238.63;;;2.36
75273;BMP280;63869;52.344;16.928;2023-02-03T09:16:51;100233.03;;;2.37
75273;BMP280;63869;52.344;16.928;2023-02-03T09:19:16;100221.09;;;2.47
75273;BMP280;63869;52.344;16.928;2023-02-03T09:21:43;100171.19;;;2.35
75273;BMP280;63869;52.344;16.928;2023-02-03T09:24:09;100139.03;;;1.99
75273;BMP280;63869;52.344;16.928;2023-02-03T09:26:34;100170.88;;;2.13
75273;BMP280;63869;52.344;16.928;2023-02-03T09:29:04;100152.44;;;2.13
75273;BMP280;63869;52.344;16.928;2023-02-03T09:31:31;100122.50;;;2.02
75273;BMP280;63869;52.344;16.928;2023-02-03T09:33:58;100138.91;;;2.15
75273;BMP280;63869;52.344;16.928;2023-02-03T09:36:23;100127.63;;;2.18
75273;BMP280;63869;52.344;16.928;2023-02-03T09:38:48;100114.94;;;2.24
75273;BMP280;63869;52.344;16.928;2023-02-03T09:44:38;100092.72;;;2.25
75273;BMP280;63869;52.344;16.928;2023-02-03T09:47:18;100078.44;;;2.26
75273;BMP280;63869;52.344;16.928;2023-02-03T09:49:56;100060.59;;;2.19
75273;BMP280;63869;52.344;16.928;2023-02-03T09:52:36;100060.47;;;2.08
75273;BMP280;63869;52.344;16.928;2023-02-03T09:55:10;100049.94;;;2.08
75273;BMP280;63869;52.344;16.928;2023-02-03T09:57:47;100022.34;;;2.02
75273;BMP280;63869;52.344;16.928;2023-02-03T10:00:20;100009.53;;;2.01
75273;BMP280;63869;52.344;16.928;2023-02-03T10:03:17;100007.28;;;2.03
75273;BMP280;63869;52.344;16.928;2023-02-03T10:06:03;99993.66;;;1.97
75273;BMP280;63869;52.344;16.928;2023-02-03T10:08:55;99997.09;;;2.01
75273;BMP280;63869;52.344;16.928;2023-02-03T10:11:47;99972.34;;;2.06
75273;BMP280;63869;52.344;16.928;2023-02-03T10:19:54;99929.41;;;2.05
75273;BMP280;63869;52.344;16.928;2023-02-03T10:22:24;99911.75;;;2.09
75273;BMP280;63869;52.344;16.928;2023-02-03T10:27:31;99878.28;;;2.13
75273;BMP280;63869;52.344;16.928;2023-02-03T10:30:02;99874.66;;;2.29
75273;BMP280;63869;52.344;16.928;2023-02-03T10:32:28;99842.63;;;2.30
75273;BMP280;63869;52.344;16.928;2023-02-03T10:34:55;99858.63;;;2.48
75273;BMP280;63869;52.344;16.928;2023-02-03T10:37:35;99851.59;;;2.63
75273;BMP280;63869;52.344;16.928;2023-02-03T10:40:11;99829.38;;;2.67
75273;BMP280;63869;52.344;16.928;2023-02-03T10:42:37;99827.66;;;2.86
75273;BMP280;63869;52.344;16.928;2023-02-03T10:45:20;99801.56;;;2.81
75273;BMP280;63869;52.344;16.928;2023-02-03T10:47:55;99796.38;;;2.95
75273;BMP280;63869;52.344;16.928;2023-02-03T10:50:25;99800.63;;;3.10
75273;BMP280;63869;52.344;16.928;2023-02-03T10:55:39;99766.38;;;3.21
75273;BMP280;63869;52.344;16.928;2023-02-03T10:58:12;99759.19;;;3.25
75273;BMP280;63869;52.344;16.928;2023-02-03T11:00:39;99770.94;;;3.34
75273;BMP280;63869;52.344;16.928;2023-02-03T11:03:07;99760.69;;;3.29
75273;BMP280;63869;52.344;16.928;2023-02-03T11:05:40;99746.41;;;3.41
75273;BMP280;63869;52.344;16.928;2023-02-03T11:08:15;99730.56;;;3.41
75273;BMP280;63869;52.344;16.928;2023-02-03T11:10:40;99730.56;;;3.45
75273;BMP280;63869;52.344;16.928;2023-02-03T11:13:22;99723.78;;;3.54
75273;BMP280;63869;52.344;16.928;2023-02-03T11:18:50;99701.53;;;3.55
75273;BMP280;63869;52.344;16.928;2023-02-03T11:21:26;99700.44;;;3.63
75273;BMP280;63869;52.344;16.928;2023-02-03T11:23:55;99693.97;;;3.75
75273;BMP280;63869;52.344;16.928;2023-02-03T11:26:27;99672.84;;;3.75
75273;BMP280;63869;52.344;16.928;2023-02-03T11:28:56;99674.38;;;3.80
75273;BMP280;63869;52.344;16.928;2023-02-03T11:31:25;99663.78;;;3.87
75273;BMP280;63869;52.344;16.928;2023-02-03T11:33:56;99656.63;;;3.84
75273;BMP280;63869;52.344;16.928;2023-02-03T11:36:25;99662.66;;;3.98
75273;BMP280;63869;52.344;16.928;2023-02-03T11:38:51;99661.13;;;4.05
75273;BMP280;63869;52.344;16.928;2023-02-03T11:41:18;99648.28;;;4.07
75273;BMP280;63869;52.344;16.928;2023-02-03T11:43:45;99653.91;;;4.30
75273;BMP280;63869;52.344;16.928;2023-02-03T11:46:11;99637.28;;;4.29
75273;BMP280;63869;52.344;16.928;2023-02-03T11:48:44;99630.84;;;4.34
75273;BMP280;63869;52.344;16.928;2023-02-03T11:51:36;99630.78;;;4.48
75273;BMP280;63869;52.344;16.928;2023-02-03T11:57:19;99626.59;;;4.54
75273;BMP280;63869;52.344;16.928;2023-02-03T12:00:11;99623.94;;;4.58
75273;BMP280;63869;52.344;16.928;2023-02-03T12:07:49;99631.84;;;4.69
75273;BMP280;63869;52.344;16.928;2023-02-03T12:10:30;99618.22;;;4.66
75273;BMP280;63869;52.344;16.928;2023-02-03T12:15:52;99609.81;;;4.86
75273;BMP280;63869;52.344;16.928;2023-02-03T12:19:09;99602.63;;;4.90
75273;BMP280;63869;52.344;16.928;2023-02-03T12:21:39;99582.19;;;4.90
75273;BMP280;63869;52.344;16.928;2023-02-03T12:24:44;99597.97;;;5.01
75273;BMP280;63869;52.344;16.928;2023-02-03T12:27:33;99592.69;;;5.05
75273;BMP280;63869;52.344;16.928;2023-02-03T12:30:04;99600.13;;;5.17
75273;BMP280;63869;52.344;16.928;2023-02-03T12:32:37;99611.38;;;5.31
75273;BMP280;63869;52.344;16.928;2023-02-03T12:35:27;99596.09;;;5.50
75273;BMP280;63869;52.344;16.928;2023-02-03T12:40:35;99582.91;;;5.80
75273;BMP280;63869;52.344;16.928;2023-02-03T12:43:18;99580.91;;;5.91
75273;BMP280;63869;52.344;16.928;2023-02-03T12:45:53;99569.34;;;6.09
75273;BMP280;63869;52.344;16.928;2023-02-03T12:48:24;99564.03;;;6.09
75273;BMP280;63869;52.344;16.928;2023-02-03T12:50:52;99565.16;;;6.11
75273;BMP280;63869;52.344;16.928;2023-02-03T12:53:24;99573.44;;;6.17
75273;BMP280;63869;52.344;16.928;2023-02-03T12:56:16;99568.91;;;6.17
75273;BMP280;63869;52.344;16.928;2023-02-03T12:59:17;99579.16;;;6.12
75273;BMP280;63869;52.344;16.928;2023-02-03T13:01:49;99569.16;;;5.92
75273;BMP280;63869;52.344;16.928;2023-02-03T13:07:07;99613.41;;;5.99
75273;BMP280;63869;52.344;16.928;2023-02-03T13:09:40;99611.69;;;5.85
75273;BMP280;63869;52.344;16.928;2023-02-03T13:12:13;99623.97;;;5.69
75273;BMP280;63869;52.344;16.928;2023-02-03T13:15:21;99614.28;;;5.48
75273;BMP280;63869;52.344;16.928;2023-02-03T13:20:35;99626.53;;;5.31
75273;BMP280;63869;52.344;16.928;2023-02-03T13:23:06;99611.53;;;5.10
75273;BMP280;63869;52.344;16.928;2023-02-03T13:31:17;99634.28;;;5.04
75273;BMP280;63869;52.344;16.928;2023-02-03T13:44:47;99648.78;;;4.89
75273;BMP280;63869;52.344;16.928;2023-02-03T13:47:28;99656.72;;;4.82
75273;BMP280;63869;52.344;16.928;2023-02-03T13:49:59;99663.91;;;4.81
75273;BMP280;63869;52.344;16.928;2023-02-03T13:55:01;99707.78;;;4.79
75273;BMP280;63869;52.344;16.928;2023-02-03T13:57:37;99714.22;;;4.78
75273;BMP280;63869;52.344;16.928;2023-02-03T14:00:06;99689.31;;;4.64
75273;BMP280;63869;52.344;16.928;2023-02-03T14:02:51;99682.13;;;4.65
75273;BMP280;63869;52.344;16.928;2023-02-03T14:05:41;99708.63;;;4.61
75273;BMP280;63869;52.344;16.928;2023-02-03T14:16:38;99717.38;;;4.19
75273;BMP280;63869;52.344;16.928;2023-02-03T14:19:08;99695.13;;;4.13
75273;BMP280;63869;52.344;16.928;2023-02-03T14:21:50;99689.84;;;4.13
75273;BMP280;63869;52.344;16.928;2023-02-03T14:24:17;99684.91;;;4.08
75273;BMP280;63869;52.344;16.928;2023-02-03T14:26:49;99688.34;;;4.16
75273;BMP280;63869;52.344;16.928;2023-02-03T14:29:27;99691.69;;;4.20
75273;BMP280;63869;52.344;16.928;2023-02-03T14:32:04;99680.75;;;4.28
75273;BMP280;63869;52.344;16.928;2023-02-03T14:34:41;99687.50;;;4.47
75273;BMP280;63869;52.344;16.928;2023-02-03T14:37:23;99693.53;;;4.48
75273;BMP280;63869;52.344;16.928;2023-02-03T14:46:01;99683.66;;;4.62
75273;BMP280;63869;52.344;16.928;2023-02-03T14:48:48;99700.28;;;4.74
75273;BMP280;63869;52.344;16.928;2023-02-03T14:57:27;99688.50;;;4.78
75273;BMP280;63869;52.344;16.928;2023-02-03T14:59:59;99684.78;;;4.69
75273;BMP280;63869;52.344;16.928;2023-02-03T15:02:27;99709.31;;;4.80
75273;BMP280;63869;52.344;16.928;2023-02-03T15:07:46;99724.44;;;4.76
75273;BMP280;63869;52.344;16.928;2023-02-03T15:10:26;99726.00;;;4.70
75273;BMP280;63869;52.344;16.928;2023-02-03T15:12:54;99711.28;;;4.61
75273;BMP280;63869;52.344;16.928;2023-02-03T15:15:22;99740.38;;;4.61
75273;BMP280;63869;52.344;16.928;2023-02-03T15:17:55;99736.97;;;4.61
75273;BMP280;63869;52.344;16.928;2023-02-03T15:20:32;99740.00;;;4.59
75273;BMP280;63869;52.344;16.928;2023-02-03T15:22:59;99729.78;;;4.61
75273;BMP280;63869;52.344;16.928;2023-02-03T15:25:28;99747.94;;;4.59
75273;BMP280;63869;52.344;16.928;2023-02-03T15:27:53;99711.69;;;4.46
75273;BMP280;63869;52.344;16.928;2023-02-03T15:30:27;99746.41;;;4.65
75273;BMP280;63869;52.344;16.928;2023-02-03T15:33:04;99748.31;;;4.65
75273;BMP280;63869;52.344;16.928;2023-02-03T15:35:32;99750.56;;;4.70
75273;BMP280;63869;52.344;16.928;2023-02-03T15:38:04;99765.31;;;4.75
75273;BMP280;63869;52.344;16.928;2023-02-03T15:40:58;99766.81;;;4.72
75273;BMP280;63869;52.344;16.928;2023-02-03T15:43:37;99789.47;;;4.84
75273;BMP280;63869;52.344;16.928;2023-02-03T15:46:15;99802.72;;;4.84
75273;BMP280;63869;52.344;16.928;2023-02-03T15:48:52;99795.53;;;4.81
75273;BMP280;63869;52.344;16.928;2023-02-03T15:54:13;99830.75;;;4.67
75273;BMP280;63869;52.344;16.928;2023-02-03T15:56:43;99806.56;;;4.58
75273;BMP280;63869;52.344;16.928;2023-02-03T15:59:22;99805.44;;;4.48